createdAt,value
2019-05-30T00:01:34.859Z,7.45
2019-05-30T00:04:03.206Z,6.35
2019-05-30T00:06:32.260Z,5.15
2019-05-30T00:09:00.507Z,6.47
2019-05-30T00:11:28.136Z,5.87
2019-05-30T00:13:56.697Z,5.12
2019-05-30T00:16:24.302Z,4.60
2019-05-30T00:18:51.749Z,5.10
2019-05-30T00:21:19.121Z,4.47
2019-05-30T00:23:46.573Z,4.65
2019-05-30T00:26:13.877Z,4.22
2019-05-30T00:28:41.284Z,4.92
2019-05-30T00:31:08.644Z,5.47
2019-05-30T00:33:36.046Z,4.80
2019-05-30T00:36:03.924Z,5.10
2019-05-30T00:38:31.433Z,4.83
2019-05-30T00:40:59.896Z,4.35
2019-05-30T00:43:27.524Z,5.37
2019-05-30T00:45:55.882Z,4.85
2019-05-30T00:48:23.498Z,4.85
2019-05-30T00:50:50.826Z,5.08
2019-05-30T00:53:18.150Z,5.20
2019-05-30T00:55:45.880Z,4.53
2019-05-30T00:58:13.232Z,5.30
2019-05-30T01:00:43.823Z,5.67
2019-05-30T01:03:10.396Z,5.55
2019-05-30T01:05:38.325Z,5.55
2019-05-30T01:08:05.699Z,5.12
2019-05-30T01:10:33.072Z,5.75
2019-05-30T01:13:01.388Z,5.10
2019-05-30T01:15:28.923Z,5.85
2019-05-30T01:17:56.992Z,5.58
2019-05-30T01:20:24.846Z,5.05
2019-05-30T01:22:52.222Z,5.35
2019-05-30T01:25:19.844Z,5.25
2019-05-30T01:27:47.298Z,4.25
2019-05-30T01:30:17.350Z,5.75
2019-05-30T01:32:44.916Z,6.25
2019-05-30T01:35:12.375Z,5.40
2019-05-30T01:37:39.678Z,6.08
2019-05-30T01:40:08.701Z,5.58
2019-05-30T01:42:36.580Z,5.65
2019-05-30T01:45:06.141Z,5.20
2019-05-30T01:47:33.670Z,5.25
2019-05-30T01:50:02.404Z,4.90
2019-05-30T01:52:30.159Z,5.60
2019-05-30T01:54:58.537Z,5.42
2019-05-30T01:57:26.148Z,5.40
2019-05-30T01:59:53.502Z,5.50
2019-05-30T02:02:20.924Z,5.58
2019-05-30T02:04:48.732Z,5.35
2019-05-30T02:07:16.051Z,5.90
2019-05-30T02:09:43.531Z,5.90
2019-05-30T02:12:10.819Z,5.97
2019-05-30T02:14:38.140Z,5.80
2019-05-30T02:17:05.875Z,5.80
2019-05-30T02:19:33.314Z,5.72
2019-05-30T02:22:01.667Z,6.40
2019-05-30T02:24:29.236Z,5.37
2019-05-30T02:26:56.666Z,5.50
2019-05-30T02:29:24.025Z,5.50
2019-05-30T02:31:51.476Z,5.40
2019-05-30T02:34:18.901Z,4.75
2019-05-30T02:36:46.420Z,5.50
2019-05-30T02:39:13.835Z,4.85
2019-05-30T02:41:41.268Z,5.03
2019-05-30T02:44:10.254Z,5.28
2019-05-30T02:46:37.927Z,4.80
2019-05-30T02:49:07.224Z,5.75
2019-05-30T02:51:34.581Z,4.87
2019-05-30T02:54:03.893Z,4.80
2019-05-30T02:56:31.255Z,5.17
2019-05-30T02:58:59.051Z,4.50
2019-05-30T03:01:26.814Z,4.60
2019-05-30T03:03:54.367Z,5.72
2019-05-30T03:06:22.123Z,4.33
2019-05-30T03:08:49.599Z,5.12
2019-05-30T03:11:17.817Z,4.50
2019-05-30T03:13:45.818Z,4.60
2019-05-30T03:16:13.721Z,4.85
2019-05-30T03:18:41.271Z,4.75
2019-05-30T03:21:12.473Z,3.95
2019-05-30T03:23:38.034Z,4.42
2019-05-30T03:26:07.117Z,4.50
2019-05-30T03:28:34.622Z,4.53
2019-05-30T03:31:05.742Z,3.92
2019-05-30T03:33:40.609Z,3.98
2019-05-30T03:36:09.070Z,3.67
2019-05-30T03:38:32.234Z,4.75
2019-05-30T03:40:59.653Z,4.50
2019-05-30T03:43:27.266Z,5.65
2019-05-30T03:45:55.199Z,5.83
2019-05-30T03:48:24.539Z,5.72
2019-05-30T03:50:54.100Z,5.53
2019-05-30T03:53:21.625Z,5.78
2019-05-30T03:55:54.586Z,8.50
2019-05-30T03:58:35.708Z,8.25
2019-05-30T04:01:08.037Z,7.08
2019-05-30T04:03:41.005Z,7.17
2019-05-30T04:06:16.540Z,7.37
2019-05-30T04:08:46.573Z,7.30
2019-05-30T04:11:17.472Z,7.60
2019-05-30T04:13:48.545Z,9.83
2019-05-30T04:16:16.145Z,10.35
2019-05-30T04:18:43.835Z,10.38
2019-05-30T04:21:13.231Z,9.45
2019-05-30T04:23:40.537Z,9.40
2019-05-30T04:26:09.585Z,10.48
2019-05-30T04:28:37.147Z,10.13
2019-05-30T04:31:04.460Z,9.65
2019-05-30T04:33:33.668Z,10.13
2019-05-30T04:36:01.133Z,9.95
2019-05-30T04:38:28.442Z,9.68
2019-05-30T04:40:55.778Z,9.40
2019-05-30T04:43:23.192Z,10.53
2019-05-30T04:45:50.630Z,9.90
2019-05-30T04:48:18.810Z,9.40
2019-05-30T04:50:47.283Z,8.90
2019-05-30T04:53:16.220Z,9.20
2019-05-30T04:55:44.127Z,9.38
2019-05-30T04:58:13.207Z,9.23
2019-05-30T05:00:40.638Z,9.85
2019-05-30T05:03:07.994Z,11.12
2019-05-30T05:05:35.526Z,9.88
2019-05-30T05:08:03.283Z,11.25
2019-05-30T05:10:30.744Z,9.40
2019-05-30T05:12:58.153Z,9.53
2019-05-30T05:15:25.647Z,10.38
2019-05-30T05:17:53.106Z,9.78
2019-05-30T05:20:21.474Z,9.30
2019-05-30T05:22:49.341Z,10.15
2019-05-30T05:25:17.454Z,10.68
2019-05-30T05:27:45.009Z,10.82
2019-05-30T05:30:12.473Z,9.75
2019-05-30T05:32:39.869Z,11.25
2019-05-30T05:35:08.455Z,10.68
2019-05-30T05:37:35.873Z,11.85
2019-05-30T05:40:03.975Z,10.68
2019-05-30T05:42:31.517Z,9.65
2019-05-30T05:44:58.892Z,11.88
2019-05-30T05:47:26.231Z,12.28
2019-05-30T05:49:53.669Z,12.98
2019-05-30T05:52:22.738Z,11.78
2019-05-30T05:54:50.498Z,13.05
2019-05-30T05:57:18.865Z,12.68
2019-05-30T05:59:46.515Z,12.45
2019-05-30T06:02:14.065Z,13.43
2019-05-30T06:04:41.578Z,12.37
2019-05-30T06:07:09.487Z,12.60
2019-05-30T06:09:36.810Z,12.73
2019-05-30T06:12:04.673Z,12.80
2019-05-30T06:14:32.042Z,12.40
2019-05-30T06:16:59.782Z,12.07
2019-05-30T06:19:27.500Z,13.08
2019-05-30T06:21:55.082Z,13.40
2019-05-30T06:24:23.567Z,13.08
2019-05-30T06:26:51.106Z,14.25
2019-05-30T06:29:20.012Z,11.73
2019-05-30T06:31:47.787Z,13.13
2019-05-30T06:34:28.189Z,14.13
2019-05-30T06:36:44.529Z,14.05
2019-05-30T06:39:11.912Z,13.83
2019-05-30T06:41:39.676Z,14.03
2019-05-30T06:44:07.184Z,14.98
2019-05-30T06:46:34.653Z,15.70
2019-05-30T06:49:03.329Z,15.35
2019-05-30T06:51:31.161Z,16.42
2019-05-30T06:53:58.884Z,15.50
2019-05-30T06:56:27.435Z,15.15
2019-05-30T06:58:55.170Z,14.85
2019-05-30T07:01:23.532Z,15.58
2019-05-30T07:03:51.406Z,13.08
2019-05-30T07:06:19.422Z,14.93
2019-05-30T07:08:47.052Z,15.25
2019-05-30T07:11:15.166Z,13.07
2019-05-30T07:13:42.629Z,12.68
2019-05-30T07:16:10.137Z,13.77
2019-05-30T07:18:37.473Z,12.80
2019-05-30T07:21:05.000Z,11.88
2019-05-30T07:23:32.364Z,12.75
2019-05-30T07:26:03.238Z,12.93
2019-05-30T07:28:29.942Z,12.73
2019-05-30T07:30:57.848Z,14.20
2019-05-30T07:33:25.997Z,12.40
2019-05-30T07:35:55.041Z,12.98
2019-05-30T07:38:24.316Z,13.60
2019-05-30T07:40:51.997Z,12.87
2019-05-30T07:43:19.881Z,13.93
2019-05-30T07:45:57.715Z,13.50
2019-05-30T07:48:16.792Z,15.47
2019-05-30T07:50:44.284Z,15.67
2019-05-30T07:53:11.815Z,14.17
2019-05-30T07:55:39.381Z,14.70
2019-05-30T07:58:06.870Z,14.43
2019-05-30T08:00:35.631Z,14.40
2019-05-30T08:03:03.196Z,17.40
2019-05-30T08:05:30.750Z,16.23
2019-05-30T08:07:59.494Z,15.83
2019-05-30T08:10:27.771Z,17.37
2019-05-30T08:12:55.663Z,17.27
2019-05-30T08:15:23.538Z,17.53
2019-05-30T08:17:52.191Z,19.47
2019-05-30T08:20:20.373Z,19.27
2019-05-30T08:22:47.972Z,19.43
2019-05-30T08:25:16.199Z,20.27
2019-05-30T08:27:43.845Z,18.87
2019-05-30T08:30:13.532Z,19.23
2019-05-30T08:32:41.138Z,18.10
2019-05-30T08:35:09.129Z,19.07
2019-05-30T08:37:37.274Z,16.10
2019-05-30T08:40:05.807Z,18.10
2019-05-30T08:42:33.764Z,16.97
2019-05-30T08:45:01.878Z,16.33
2019-05-30T08:47:29.815Z,16.67
2019-05-30T08:49:57.323Z,16.77
2019-05-30T08:52:25.052Z,16.33
2019-05-30T08:54:52.632Z,15.40
2019-05-30T08:57:20.423Z,17.17
2019-05-30T08:59:47.976Z,15.70
2019-05-30T09:02:15.466Z,15.63
2019-05-30T09:04:43.946Z,15.30
2019-05-30T09:07:11.649Z,15.53
2019-05-30T09:09:40.210Z,14.77
2019-05-30T09:12:08.049Z,12.70
2019-05-30T09:14:37.390Z,14.30
2019-05-30T09:17:05.291Z,12.73
2019-05-30T09:19:32.747Z,11.03
2019-05-30T09:22:00.348Z,11.50
2019-05-30T09:24:27.970Z,11.77
2019-05-30T09:26:55.563Z,10.60
2019-05-30T09:29:23.050Z,9.43
2019-05-30T09:31:50.830Z,8.63
2019-05-30T09:34:18.389Z,9.50
2019-05-30T09:36:46.946Z,7.30
2019-05-30T09:39:15.079Z,6.10
2019-05-30T09:41:43.794Z,4.80
2019-05-30T09:44:11.764Z,4.70
2019-05-30T09:46:42.437Z,5.50
2019-05-30T09:49:10.133Z,6.13
2019-05-30T09:51:37.724Z,6.70
2019-05-30T09:54:05.337Z,6.20
2019-05-30T09:56:33.413Z,5.90
2019-05-30T09:59:01.552Z,9.07
2019-05-30T10:01:29.502Z,7.87
2019-05-30T10:03:57.638Z,7.33
2019-05-30T10:06:29.564Z,4.53
2019-05-30T10:08:55.967Z,4.83
2019-05-30T10:11:24.074Z,4.70
2019-05-30T10:13:52.865Z,4.40
2019-05-30T10:16:21.222Z,2.87
2019-05-30T10:18:50.685Z,4.90
2019-05-30T10:21:18.917Z,5.53
2019-05-30T10:23:47.578Z,3.60
2019-05-30T10:26:15.741Z,3.53
2019-05-30T10:28:44.819Z,3.83
2019-05-30T10:31:13.234Z,5.27
2019-05-30T10:33:41.590Z,6.67
2019-05-30T10:36:09.357Z,2.67
2019-05-30T10:38:37.551Z,2.00
2019-05-30T10:41:05.714Z,1.53
2019-05-30T10:43:33.488Z,1.57
2019-05-30T10:46:01.229Z,3.00
2019-05-30T10:48:29.172Z,3.07
2019-05-30T10:50:57.311Z,2.90
2019-05-30T10:53:25.264Z,2.67
2019-05-30T10:55:54.721Z,2.73
2019-05-30T10:58:22.519Z,4.10
2019-05-30T11:00:53.610Z,3.40
2019-05-30T11:03:22.736Z,1.90
2019-05-30T11:06:22.274Z,2.60
2019-05-30T11:08:52.763Z,1.93
2019-05-30T11:11:20.420Z,2.60
2019-05-30T11:13:48.894Z,2.67
2019-05-30T11:16:16.378Z,2.60
2019-05-30T11:18:43.810Z,2.13
2019-05-30T11:21:11.272Z,2.23
2019-05-30T11:23:38.908Z,2.00
2019-05-30T11:26:06.507Z,2.30
2019-05-30T11:28:34.259Z,1.90
2019-05-30T11:31:04.523Z,1.90
2019-05-30T11:33:31.781Z,1.83
2019-05-30T11:35:59.343Z,1.90
2019-05-30T11:38:26.856Z,1.60
2019-05-30T11:40:55.514Z,2.43
2019-05-30T11:43:23.565Z,2.73
2019-05-30T11:45:51.723Z,2.50
2019-05-30T11:48:19.245Z,2.77
2019-05-30T11:50:46.901Z,2.00
2019-05-30T11:53:14.811Z,2.27
2019-05-30T11:55:42.436Z,2.03
2019-05-30T11:58:09.985Z,1.90
2019-05-30T12:00:38.652Z,2.30
2019-05-30T12:03:06.774Z,2.23
2019-05-30T12:05:34.577Z,2.20
2019-05-30T12:08:02.505Z,1.90
2019-05-30T12:10:31.221Z,2.13
2019-05-30T12:12:59.457Z,2.40
2019-05-30T12:15:27.455Z,2.80
2019-05-30T12:17:55.335Z,2.40
2019-05-30T12:20:23.360Z,2.40
2019-05-30T12:22:51.757Z,2.10
2019-05-30T12:25:19.799Z,2.30
2019-05-30T12:27:47.271Z,2.20
2019-05-30T12:30:15.451Z,2.40
2019-05-30T12:32:42.848Z,2.10
2019-05-30T12:35:10.857Z,2.03
2019-05-30T12:37:53.516Z,2.37
2019-05-30T12:40:08.992Z,2.40
2019-05-30T12:42:36.617Z,2.20
2019-05-30T12:45:07.347Z,1.97
2019-05-30T12:47:34.898Z,2.27
2019-05-30T12:50:03.463Z,2.77
2019-05-30T12:52:31.001Z,2.50
2019-05-30T12:54:58.519Z,2.43
2019-05-30T12:57:26.025Z,2.57
2019-05-30T12:59:54.634Z,3.00
2019-05-30T13:02:22.332Z,2.40
2019-05-30T13:04:49.675Z,2.23
2019-05-30T13:07:17.166Z,2.10
2019-05-30T13:09:44.502Z,1.67
2019-05-30T13:12:12.112Z,2.00
2019-05-30T13:14:40.575Z,2.30
2019-05-30T13:17:08.076Z,2.13
2019-05-30T13:19:35.584Z,2.60
2019-05-30T13:22:03.476Z,2.00
2019-05-30T13:24:30.926Z,2.33
2019-05-30T13:26:59.588Z,1.77
2019-05-30T13:29:27.180Z,2.30
2019-05-30T13:31:54.749Z,2.00
2019-05-30T13:34:22.579Z,2.10
2019-05-30T13:36:50.073Z,2.20
2019-05-30T13:39:17.576Z,2.17
2019-05-30T13:41:45.525Z,2.50
2019-05-30T13:44:13.870Z,2.30
2019-05-30T13:46:41.456Z,1.90
2019-05-30T13:49:08.946Z,2.50
2019-05-30T13:51:36.484Z,2.03
2019-05-30T13:54:05.203Z,2.43
2019-05-30T13:56:33.044Z,2.90
2019-05-30T13:59:01.726Z,2.30
2019-05-30T14:01:29.626Z,2.20
2019-05-30T14:03:57.077Z,2.43
2019-05-30T14:06:24.438Z,1.50
2019-05-30T14:08:51.830Z,2.40
2019-05-30T14:11:19.550Z,2.40
2019-05-30T14:13:47.362Z,2.30
2019-05-30T14:16:14.909Z,1.87
2019-05-30T14:18:42.610Z,1.57
2019-05-30T14:21:11.474Z,1.60
2019-05-30T14:23:39.333Z,2.50
2019-05-30T14:26:07.934Z,1.87
2019-05-30T14:28:35.472Z,2.30
2019-05-30T14:31:03.912Z,2.20
2019-05-30T14:33:32.699Z,1.87
2019-05-30T14:36:04.006Z,1.50
2019-05-30T14:38:29.536Z,2.10
2019-05-30T14:40:57.079Z,1.97
2019-05-30T14:43:24.559Z,2.37
2019-05-30T14:45:51.980Z,1.90
2019-05-30T14:48:19.363Z,2.40
2019-05-30T14:50:46.817Z,1.80
2019-05-30T14:53:14.138Z,1.67
2019-05-30T14:55:43.413Z,1.67
2019-05-30T14:58:11.158Z,2.50
2019-05-30T15:00:38.625Z,1.50
2019-05-30T15:03:09.216Z,1.73
2019-05-30T15:05:35.936Z,1.63
2019-05-30T15:08:04.628Z,2.00
2019-05-30T15:11:21.128Z,1.43
2019-05-30T15:13:48.791Z,1.73
2019-05-30T15:16:17.241Z,2.47
2019-05-30T15:18:44.899Z,1.80
2019-05-30T15:21:12.755Z,1.50
2019-05-30T15:23:40.261Z,2.13
2019-05-30T15:26:07.956Z,1.90
2019-05-30T15:28:35.565Z,2.07
2019-05-30T15:31:03.240Z,1.70
2019-05-30T15:33:31.008Z,1.60
2019-05-30T15:35:58.806Z,2.07
2019-05-30T15:38:26.864Z,2.00
2019-05-30T15:40:54.497Z,1.80
2019-05-30T15:43:22.426Z,1.90
2019-05-30T15:45:51.059Z,2.10
2019-05-30T15:48:18.615Z,1.80
2019-05-30T15:50:46.272Z,2.13
2019-05-30T15:53:15.128Z,2.10
2019-05-30T15:55:43.405Z,2.30
2019-05-30T15:58:11.429Z,1.80
2019-05-30T16:00:39.282Z,2.10
2019-05-30T16:03:07.630Z,2.13
2019-05-30T16:05:35.649Z,1.60
2019-05-30T16:08:03.397Z,2.30
2019-05-30T16:10:31.231Z,1.80
2019-05-30T16:12:59.143Z,2.23
2019-05-30T16:15:26.765Z,2.00
2019-05-30T16:17:54.203Z,1.90
2019-05-30T16:20:22.218Z,1.63
2019-05-30T16:22:49.640Z,2.13
2019-05-30T16:25:17.750Z,1.67
2019-05-30T16:27:45.374Z,2.30
2019-05-30T16:30:18.275Z,1.70
2019-05-30T16:32:42.973Z,2.20
2019-05-30T16:35:11.473Z,1.80
2019-05-30T16:37:38.938Z,1.83
2019-05-30T16:40:07.502Z,2.00
2019-05-30T16:42:35.197Z,1.80
2019-05-30T16:45:02.993Z,1.80
2019-05-30T16:47:30.515Z,1.97
2019-05-30T16:49:58.002Z,2.17
2019-05-30T16:52:27.212Z,2.00
2019-05-30T16:54:55.128Z,1.70
2019-05-30T16:57:22.783Z,1.70
2019-05-30T16:59:50.252Z,1.93
2019-05-30T17:02:18.854Z,1.63
2019-05-30T17:04:46.573Z,2.00
2019-05-30T17:07:14.996Z,1.67
2019-05-30T17:09:42.557Z,1.70
2019-05-30T17:12:10.045Z,1.40
2019-05-30T17:14:37.520Z,2.13
2019-05-30T17:17:04.968Z,2.30
2019-05-30T17:19:32.734Z,1.70
2019-05-30T17:22:00.708Z,2.00
2019-05-30T17:24:28.544Z,1.80
2019-05-30T17:26:56.925Z,1.90
2019-05-30T17:29:25.748Z,2.20
2019-05-30T17:31:53.447Z,2.40
2019-05-30T17:34:21.826Z,1.90
2019-05-30T17:36:49.769Z,1.80
2019-05-30T17:39:18.829Z,3.47
2019-05-30T17:41:46.454Z,2.20
2019-05-30T17:44:14.020Z,2.17
2019-05-30T17:46:41.892Z,2.00
2019-05-30T17:49:09.734Z,2.33
2019-05-30T17:51:37.718Z,2.03
2019-05-30T17:54:05.853Z,1.97
2019-05-30T17:56:33.635Z,1.63
2019-05-30T17:59:01.818Z,2.60
2019-05-30T18:01:30.435Z,2.33
2019-05-30T18:03:58.480Z,2.30
2019-05-30T18:06:26.614Z,1.80
2019-05-30T18:08:55.210Z,1.97
2019-05-30T18:11:23.064Z,2.27
2019-05-30T18:13:50.748Z,2.30
2019-05-30T18:16:18.552Z,2.40
2019-05-30T18:18:46.520Z,2.53
2019-05-30T18:21:15.301Z,2.10
2019-05-30T18:23:44.901Z,2.00
2019-05-30T18:26:13.302Z,2.30
2019-05-30T18:28:41.026Z,2.37
2019-05-30T18:31:08.649Z,2.20
2019-05-30T18:33:36.653Z,2.00
2019-05-30T18:36:04.408Z,2.40
2019-05-30T18:38:32.667Z,2.30
2019-05-30T18:41:11.082Z,1.90
2019-05-30T18:43:30.933Z,2.17
2019-05-30T18:45:59.362Z,2.30
2019-05-30T18:48:27.590Z,2.50
2019-05-30T18:50:55.742Z,2.00
2019-05-30T18:53:24.208Z,2.63
2019-05-30T18:55:52.533Z,2.20
2019-05-30T18:58:21.152Z,2.57
2019-05-30T19:00:49.440Z,2.30
2019-05-30T19:03:17.713Z,2.77
2019-05-30T19:05:48.417Z,2.43
2019-05-30T19:08:16.221Z,2.57
2019-05-30T19:10:44.172Z,2.50
2019-05-30T19:13:12.022Z,2.13
2019-05-30T19:15:40.156Z,2.30
2019-05-30T19:18:09.406Z,2.10
2019-05-30T19:20:37.410Z,1.83
2019-05-30T19:23:05.319Z,1.87
2019-05-30T19:25:33.955Z,2.10
2019-05-30T19:28:01.872Z,2.10
2019-05-30T19:30:30.564Z,2.27
2019-05-30T19:32:58.966Z,2.40
2019-05-30T19:35:27.090Z,3.10
2019-05-30T19:37:54.782Z,2.60
2019-05-30T19:40:24.882Z,2.67
2019-05-30T19:42:52.367Z,2.40
2019-05-30T19:45:20.767Z,2.60
2019-05-30T19:47:48.949Z,2.50
2019-05-30T19:50:17.439Z,2.67
2019-05-30T19:52:46.980Z,2.30
2019-05-30T19:55:16.429Z,3.30
2019-05-30T19:57:44.184Z,2.53
2019-05-30T20:00:13.137Z,2.93
2019-05-30T20:02:41.093Z,2.77
2019-05-30T20:05:08.942Z,2.33
2019-05-30T20:07:36.953Z,2.57
2019-05-30T20:10:05.244Z,2.00
2019-05-30T20:12:32.883Z,2.20
2019-05-30T20:15:00.797Z,2.27
2019-05-30T20:17:30.057Z,2.70
2019-05-30T20:19:58.298Z,2.30
2019-05-30T20:22:26.224Z,2.17
2019-05-30T20:24:53.853Z,2.47
2019-05-30T20:27:21.603Z,2.60
2019-05-30T20:29:49.276Z,2.33
2019-05-30T20:32:16.842Z,2.17
2019-05-30T20:34:44.390Z,2.00
2019-05-30T20:37:11.965Z,2.20
2019-05-30T20:39:40.836Z,2.40
2019-05-30T20:42:18.757Z,2.83
2019-05-30T20:44:38.844Z,2.63
2019-05-30T20:47:06.643Z,2.80
2019-05-30T20:49:35.113Z,2.60
2019-05-30T20:52:02.877Z,3.00
2019-05-30T20:54:30.414Z,2.50
2019-05-30T20:56:58.064Z,2.40
2019-05-30T20:59:26.038Z,3.33
2019-05-30T21:01:53.573Z,3.20
2019-05-30T21:04:26.496Z,3.00
2019-05-30T21:06:54.649Z,2.83
2019-05-30T21:09:28.825Z,3.10
2019-05-30T21:11:53.725Z,2.77
2019-05-30T21:14:27.642Z,3.40
2019-05-30T21:16:56.397Z,3.33
2019-05-30T21:19:24.065Z,3.47
2019-05-30T21:21:53.863Z,3.43
2019-05-30T21:24:21.489Z,3.83
2019-05-30T21:26:49.068Z,3.57
2019-05-30T21:29:17.156Z,4.53
2019-05-30T21:31:45.648Z,3.47
2019-05-30T21:34:13.527Z,3.30
2019-05-30T21:36:46.149Z,4.30
2019-05-30T21:39:14.140Z,3.33
2019-05-30T21:41:42.454Z,3.87
2019-05-30T21:44:10.015Z,3.60
2019-05-30T21:46:38.635Z,4.10
2019-05-30T21:49:06.102Z,3.80
2019-05-30T21:51:33.551Z,3.87
2019-05-30T21:54:01.067Z,3.30
2019-05-30T21:56:28.690Z,3.87
2019-05-30T21:58:56.188Z,3.90
2019-05-30T22:01:37.931Z,3.80
2019-05-30T22:04:06.419Z,3.10
2019-05-30T22:06:34.025Z,3.53
2019-05-30T22:09:03.479Z,3.70
2019-05-30T22:11:30.903Z,3.80
2019-05-30T22:13:58.440Z,4.30
2019-05-30T22:16:25.914Z,4.33
2019-05-30T22:18:53.447Z,5.00
2019-05-30T22:21:21.617Z,4.70
2019-05-30T22:23:50.244Z,5.00
2019-05-30T22:26:17.817Z,5.13
2019-05-30T22:28:46.300Z,5.03
2019-05-30T22:31:13.903Z,4.70
2019-05-30T22:33:42.541Z,4.60
2019-05-30T22:36:10.397Z,4.83
2019-05-30T22:38:38.336Z,4.00
2019-05-30T22:41:06.155Z,5.00
2019-05-30T22:43:33.643Z,4.80
2019-05-30T22:46:01.111Z,5.00
2019-05-30T22:48:28.927Z,5.90
2019-05-30T22:50:57.052Z,4.80
2019-05-30T22:53:25.152Z,4.77
2019-05-30T22:55:53.683Z,4.93
2019-05-30T22:58:21.197Z,5.37
2019-05-30T23:00:49.961Z,5.00
2019-05-30T23:03:17.670Z,4.70
2019-05-30T23:05:45.262Z,4.43
2019-05-30T23:08:13.029Z,5.40
2019-05-30T23:10:43.114Z,4.70
2019-05-30T23:13:11.927Z,4.13
2019-05-30T23:15:42.972Z,4.23
2019-05-30T23:18:22.041Z,4.10
2019-05-30T23:20:50.627Z,4.90
2019-05-30T23:23:18.274Z,5.47
2019-05-30T23:25:46.997Z,4.80
2019-05-30T23:28:14.586Z,4.30
2019-05-30T23:30:41.976Z,5.03
2019-05-30T23:33:09.461Z,4.20
2019-05-30T23:35:36.844Z,5.50
2019-05-30T23:38:04.326Z,4.50
2019-05-30T23:40:31.817Z,5.00
2019-05-30T23:42:59.630Z,4.97
2019-05-30T23:45:28.515Z,4.80
2019-05-30T23:47:55.969Z,5.00
2019-05-30T23:50:23.653Z,5.17
2019-05-30T23:52:52.046Z,4.97
2019-05-30T23:55:19.568Z,4.80
2019-05-30T23:57:47.023Z,5.90
